Ag Nektarios Aiginas — SX7083 — position and weather

sailwx.info

Track history (hours):
 
Tides and Currents Weather Stations Pressure Air Temp Water Temp Dewpoint Dewpoint Depression Visibility Wind Speed Wind Dir Waves Ship Positions

Ag Nektarios Aiginas

Last reported at 2016-Jun-29 04:33 UTC. Time now 2016-Jun-29 05:39 UTC.
Position N 37°57' E 023°39'.

Length 75 m; draft 2.7 m.

Type: Passenger vessel. MMSI: 237021400.

Date/timePositionNaut miles runAvg speedWind from/ knotsBaromVisibWave heightAir tempDewpointWater temp
2016-Jun-29 04:33N 37°57' E 023°39'0 0.0
2016-Jun-28 17:21N 37°57' E 023°38'3 3.2
2016-Jun-28 16:34N 37°55' E 023°36'1211.7
2016-Jun-28 15:33N 37°47' E 023°26'0 0.3
2016-Jun-28 14:33N 37°47' E 023°26'1211.7
2016-Jun-28 13:33N 37°55' E 023°36'1 0.8
2016-Jun-28 12:33N 37°56' E 023°37'1312.6
2016-Jun-28 11:33N 37°47' E 023°26'0 0.5
2016-Jun-28 10:33N 37°47' E 023°26'1211.9
2016-Jun-28 09:33N 37°55' E 023°37'1 1.3
2016-Jun-28 08:33N 37°56' E 023°38'1212.2
2016-Jun-28 07:33N 37°48' E 023°27'1 0.7
2016-Jun-28 06:33N 37°47' E 023°27'13 6.7
2016-Jun-28 04:33N 37°57' E 023°39'2 0.1
2016-Jun-27 16:33N 37°56' E 023°37'1212.4
2016-Jun-27 15:33N 37°47' E 023°26'0 0.3
2016-Jun-27 14:33N 37°47' E 023°26'1212.1
2016-Jun-27 13:33N 37°55' E 023°36'1 0.6
2016-Jun-27 12:33N 37°56' E 023°37'1212.5
2016-Jun-27 11:33N 37°47' E 023°26'1 1.1
2016-Jun-27 10:33N 37°46' E 023°25'1212.1
2016-Jun-27 09:33N 37°55' E 023°36'2 2.5
2016-Jun-27 08:33N 37°56' E 023°38'1212.2
2016-Jun-27 07:33N 37°48' E 023°27'1 1.3
2016-Jun-27 06:33N 37°47' E 023°26'1212.1
2016-Jun-27 05:33N 37°56' E 023°36'2 0.2
2016-Jun-26 19:33N 37°57' E 023°38'1111.4
2016-Jun-26 18:33N 37°48' E 023°28'4 3.7
2016-Jun-26 17:33N 37°46' E 023°25'1212.1
2016-Jun-26 16:33N 37°55' E 023°36'2 1.8
2016-Jun-26 15:33N 37°53' E 023°34'1110.5
2016-Jun-26 14:31N 37°45' E 023°26'3 3.6
2016-Jun-26 13:33N 37°48' E 023°28'1212.1
2016-Jun-26 12:33N 37°56' E 023°38'4 4.1
2016-Jun-26 11:33N 37°53' E 023°35'1111.2
2016-Jun-26 10:33N 37°45' E 023°25'4 3.6
2016-Jun-26 09:33N 37°48' E 023°28'1212.0
2016-Jun-26 08:33N 37°56' E 023°38'0 0.3
2016-Jun-26 07:33N 37°57' E 023°39'0 0.0
2016-Jun-25 17:31N 37°56' E 023°38'2 2.2
2016-Jun-25 16:33N 37°55' E 023°36'1212.0
2016-Jun-25 15:34N 37°47' E 023°26'1 1.0
2016-Jun-25 14:33N 37°46' E 023°25'1312.5
2016-Jun-25 13:33N 37°55' E 023°36'0 0.3
2016-Jun-25 12:33N 37°55' E 023°36'1212.0
2016-Jun-25 11:33N 37°47' E 023°26'0 0.3
2016-Jun-25 10:33N 37°47' E 023°26'1212.6
2016-Jun-25 09:33N 37°56' E 023°37'1 1.4
2016-Jun-25 08:33N 37°55' E 023°36'1211.9
2016-Jun-25 07:33N 37°46' E 023°25'2 1.7
2016-Jun-25 06:33N 37°47' E 023°27'1212.3
2016-Jun-25 05:33N 37°56' E 023°38'1 0.7
2016-Jun-25 04:33N 37°57' E 023°39'2 0.2
2016-Jun-24 16:33N 37°55' E 023°36'1212.0
2016-Jun-24 15:33N 37°47' E 023°26'0 0.3
2016-Jun-24 14:33N 37°46' E 023°26'1312.6
2016-Jun-24 13:33N 37°56' E 023°37'1 0.5
2016-Jun-24 12:33N 37°55' E 023°36'1211.9
2016-Jun-24 11:33N 37°47' E 023°26'1 0.7
2016-Jun-24 10:33N 37°46' E 023°25'1312.6
2016-Jun-24 09:33N 37°55' E 023°36'0 0.3
2016-Jun-24 08:33N 37°55' E 023°36'1211.5
2016-Jun-24 07:33N 37°47' E 023°26'14 4.5
2016-Jun-24 04:33N 37°57' E 023°39'0 0.0
2016-Jun-23 17:05N 37°57' E 023°39'3 5.2
2016-Jun-23 16:34N 37°55' E 023°36'1211.8
2016-Jun-23 15:33N 37°47' E 023°25'1 0.5
2016-Jun-23 14:33N 37°46' E 023°25'1312.8
2016-Jun-23 13:33N 37°55' E 023°36'0 0.2
2016-Jun-23 12:34N 37°55' E 023°36'1211.7
2016-Jun-23 11:33N 37°47' E 023°26'0 0.3
2016-Jun-23 10:33N 37°47' E 023°26'1312.7
2016-Jun-23 09:34N 37°56' E 023°36'0 0.3
2016-Jun-23 08:33N 37°56' E 023°36'1111.4
2016-Jun-23 07:34N 37°47' E 023°27'12 6.0
2016-Jun-23 05:34N 37°56' E 023°37'1 0.1
2016-Jun-22 17:13N 37°57' E 023°39'3 4.4
2016-Jun-22 16:33N 37°55' E 023°36'1212.0
2016-Jun-22 15:33N 37°46' E 023°25'1 1.0
2016-Jun-22 14:33N 37°47' E 023°26'1212.5
2016-Jun-22 13:33N 37°56' E 023°37'1 1.3
2016-Jun-22 12:34N 37°55' E 023°36'1211.9
2016-Jun-22 11:33N 37°46' E 023°26'1 1.0
2016-Jun-22 10:33N 37°47' E 023°27'1312.7
2016-Jun-22 09:33N 37°56' E 023°38'3 2.8
2016-Jun-22 08:33N 37°54' E 023°36'1211.6
2016-Jun-22 07:33N 37°46' E 023°25'2 1.6
2016-Jun-22 06:33N 37°47' E 023°27'1212.5
2016-Jun-22 05:33N 37°56' E 023°37'1 1.2
2016-Jun-22 04:33N 37°57' E 023°39'2 0.2
2016-Jun-21 16:33N 37°55' E 023°36'1211.9
2016-Jun-21 15:33N 37°47' E 023°26'1 0.9
2016-Jun-21 14:34N 37°46' E 023°25'1312.6
2016-Jun-21 13:33N 37°55' E 023°36'0 0.3
2016-Jun-21 12:34N 37°55' E 023°37'1211.9
2016-Jun-21 11:34N 37°47' E 023°26'2 1.6
2016-Jun-21 10:34N 37°46' E 023°25'1312.5
2016-Jun-21 09:32N 37°55' E 023°36'2 1.7
2016-Jun-21 08:33N 37°56' E 023°37'1511.4
2016-Jun-21 07:16N 37°45' E 023°25'2 2.5
2016-Jun-21 06:33N 37°47' E 023°26'14 1.3
2016-Jun-20 20:04N 37°57' E 023°39'2 4.6
2016-Jun-20 19:34N 37°55' E 023°36'1212.2
2016-Jun-20 18:33N 37°46' E 023°25'0 0.1
2016-Jun-20 17:34N 37°46' E 023°25'1212.2
2016-Jun-20 16:33N 37°55' E 023°36'2 2.3
2016-Jun-20 15:34N 37°53' E 023°34'1111.1
2016-Jun-20 14:33N 37°45' E 023°25'3 3.5
2016-Jun-20 13:34N 37°48' E 023°28'1212.2
2016-Jun-20 12:33N 37°57' E 023°38'5 5.1
2016-Jun-20 11:33N 37°53' E 023°34'1110.6
2016-Jun-20 10:33N 37°45' E 023°26'3 3.0
2016-Jun-20 09:33N 37°47' E 023°27'1212.5
2016-Jun-20 08:34N 37°56' E 023°38'2 2.4
2016-Jun-20 07:34N 37°55' E 023°36'1212.3
2016-Jun-20 06:33N 37°46' E 023°25'5 5.2
2016-Jun-20 05:34N 37°49' E 023°30'1010.1
2016-Jun-20 04:33N 37°57' E 023°39'0 0.0
2016-Jun-19 19:33N 37°57' E 023°38'1110.8
2016-Jun-19 18:33N 37°49' E 023°29'5 5.3
2016-Jun-19 17:33N 37°45' E 023°25'1211.6
2016-Jun-19 16:33N 37°53' E 023°35'1 0.6
2016-Jun-19 15:33N 37°54' E 023°35'1211.6
2016-Jun-19 14:33N 37°45' E 023°25'4 3.9
2016-Jun-19 13:33N 37°48' E 023°28'1212.0
2016-Jun-19 12:33N 37°57' E 023°38'5 5.2
2016-Jun-19 11:33N 37°52' E 023°35'1110.5
2016-Jun-19 10:33N 37°45' E 023°25'4 4.1
2016-Jun-19 09:33N 37°48' E 023°29'1211.7
2016-Jun-19 08:33N 37°57' E 023°39'4 4.1
2016-Jun-19 07:33N 37°54' E 023°35'1211.7
2016-Jun-19 06:33N 37°45' E 023°25'6 5.6
2016-Jun-19 05:33N 37°49' E 023°30'  
Track history (hours):
 
Tides and Currents Weather Stations Pressure Air Temp Water Temp Dewpoint Dewpoint Depression Visibility Wind Speed Wind Dir Waves Ship Positions

Ag Nektarios Aiginas

Last reported at 2016-Jun-29 04:33 UTC. Time now 2016-Jun-29 05:39 UTC.
Position N 37°57' E 023°39'.

Length 75 m; draft 2.7 m.

Type: Passenger vessel. MMSI: 237021400.

Date/timePositionNaut miles runAvg speedWind from/ knotsBaromVisibWave heightAir tempDewpointWater temp
2016-Jun-29 04:33N 37°57' E 023°39'0 0.0
2016-Jun-28 17:21N 37°57' E 023°38'3 3.2
2016-Jun-28 16:34N 37°55' E 023°36'1211.7
2016-Jun-28 15:33N 37°47' E 023°26'0 0.3
2016-Jun-28 14:33N 37°47' E 023°26'1211.7
2016-Jun-28 13:33N 37°55' E 023°36'1 0.8
2016-Jun-28 12:33N 37°56' E 023°37'1312.6
2016-Jun-28 11:33N 37°47' E 023°26'0 0.5
2016-Jun-28 10:33N 37°47' E 023°26'1211.9
2016-Jun-28 09:33N 37°55' E 023°37'1 1.3
2016-Jun-28 08:33N 37°56' E 023°38'1212.2
2016-Jun-28 07:33N 37°48' E 023°27'1 0.7
2016-Jun-28 06:33N 37°47' E 023°27'13 6.7
2016-Jun-28 04:33N 37°57' E 023°39'2 0.1
2016-Jun-27 16:33N 37°56' E 023°37'1212.4
2016-Jun-27 15:33N 37°47' E 023°26'0 0.3
2016-Jun-27 14:33N 37°47' E 023°26'1212.1
2016-Jun-27 13:33N 37°55' E 023°36'1 0.6
2016-Jun-27 12:33N 37°56' E 023°37'1212.5
2016-Jun-27 11:33N 37°47' E 023°26'1 1.1
2016-Jun-27 10:33N 37°46' E 023°25'1212.1
2016-Jun-27 09:33N 37°55' E 023°36'2 2.5
2016-Jun-27 08:33N 37°56' E 023°38'1212.2
2016-Jun-27 07:33N 37°48' E 023°27'1 1.3
2016-Jun-27 06:33N 37°47' E 023°26'1212.1
2016-Jun-27 05:33N 37°56' E 023°36'2 0.2
2016-Jun-26 19:33N 37°57' E 023°38'1111.4
2016-Jun-26 18:33N 37°48' E 023°28'4 3.7
2016-Jun-26 17:33N 37°46' E 023°25'1212.1
2016-Jun-26 16:33N 37°55' E 023°36'2 1.8
2016-Jun-26 15:33N 37°53' E 023°34'1110.5
2016-Jun-26 14:31N 37°45' E 023°26'3 3.6
2016-Jun-26 13:33N 37°48' E 023°28'1212.1
2016-Jun-26 12:33N 37°56' E 023°38'4 4.1
2016-Jun-26 11:33N 37°53' E 023°35'1111.2
2016-Jun-26 10:33N 37°45' E 023°25'4 3.6
2016-Jun-26 09:33N 37°48' E 023°28'1212.0
2016-Jun-26 08:33N 37°56' E 023°38'0 0.3
2016-Jun-26 07:33N 37°57' E 023°39'0 0.0
2016-Jun-25 17:31N 37°56' E 023°38'2 2.2
2016-Jun-25 16:33N 37°55' E 023°36'1212.0
2016-Jun-25 15:34N 37°47' E 023°26'1 1.0
2016-Jun-25 14:33N 37°46' E 023°25'1312.5
2016-Jun-25 13:33N 37°55' E 023°36'0 0.3
2016-Jun-25 12:33N 37°55' E 023°36'1212.0
2016-Jun-25 11:33N 37°47' E 023°26'0 0.3
2016-Jun-25 10:33N 37°47' E 023°26'1212.6
2016-Jun-25 09:33N 37°56' E 023°37'1 1.4
2016-Jun-25 08:33N 37°55' E 023°36'1211.9
2016-Jun-25 07:33N 37°46' E 023°25'2 1.7
2016-Jun-25 06:33N 37°47' E 023°27'1212.3
2016-Jun-25 05:33N 37°56' E 023°38'1 0.7
2016-Jun-25 04:33N 37°57' E 023°39'2 0.2
2016-Jun-24 16:33N 37°55' E 023°36'1212.0
2016-Jun-24 15:33N 37°47' E 023°26'0 0.3
2016-Jun-24 14:33N 37°46' E 023°26'1312.6
2016-Jun-24 13:33N 37°56' E 023°37'1 0.5
2016-Jun-24 12:33N 37°55' E 023°36'1211.9
2016-Jun-24 11:33N 37°47' E 023°26'1 0.7
2016-Jun-24 10:33N 37°46' E 023°25'1312.6
2016-Jun-24 09:33N 37°55' E 023°36'0 0.3
2016-Jun-24 08:33N 37°55' E 023°36'1211.5
2016-Jun-24 07:33N 37°47' E 023°26'14 4.5
2016-Jun-24 04:33N 37°57' E 023°39'0 0.0
2016-Jun-23 17:05N 37°57' E 023°39'3 5.2
2016-Jun-23 16:34N 37°55' E 023°36'1211.8
2016-Jun-23 15:33N 37°47' E 023°25'1 0.5
2016-Jun-23 14:33N 37°46' E 023°25'1312.8
2016-Jun-23 13:33N 37°55' E 023°36'0 0.2
2016-Jun-23 12:34N 37°55' E 023°36'1211.7
2016-Jun-23 11:33N 37°47' E 023°26'0 0.3
2016-Jun-23 10:33N 37°47' E 023°26'1312.7
2016-Jun-23 09:34N 37°56' E 023°36'0 0.3
2016-Jun-23 08:33N 37°56' E 023°36'1111.4
2016-Jun-23 07:34N 37°47' E 023°27'12 6.0
2016-Jun-23 05:34N 37°56' E 023°37'1 0.1
2016-Jun-22 17:13N 37°57' E 023°39'3 4.4
2016-Jun-22 16:33N 37°55' E 023°36'1212.0
2016-Jun-22 15:33N 37°46' E 023°25'1 1.0
2016-Jun-22 14:33N 37°47' E 023°26'1212.5
2016-Jun-22 13:33N 37°56' E 023°37'1 1.3
2016-Jun-22 12:34N 37°55' E 023°36'1211.9
2016-Jun-22 11:33N 37°46' E 023°26'1 1.0
2016-Jun-22 10:33N 37°47' E 023°27'1312.7
2016-Jun-22 09:33N 37°56' E 023°38'3 2.8
2016-Jun-22 08:33N 37°54' E 023°36'1211.6
2016-Jun-22 07:33N 37°46' E 023°25'2 1.6
2016-Jun-22 06:33N 37°47' E 023°27'1212.5
2016-Jun-22 05:33N 37°56' E 023°37'1 1.2
2016-Jun-22 04:33N 37°57' E 023°39'2 0.2
2016-Jun-21 16:33N 37°55' E 023°36'1211.9
2016-Jun-21 15:33N 37°47' E 023°26'1 0.9
2016-Jun-21 14:34N 37°46' E 023°25'1312.6
2016-Jun-21 13:33N 37°55' E 023°36'0 0.3
2016-Jun-21 12:34N 37°55' E 023°37'1211.9
2016-Jun-21 11:34N 37°47' E 023°26'2 1.6
2016-Jun-21 10:34N 37°46' E 023°25'1312.5
2016-Jun-21 09:32N 37°55' E 023°36'2 1.7
2016-Jun-21 08:33N 37°56' E 023°37'1511.4
2016-Jun-21 07:16N 37°45' E 023°25'2 2.5
2016-Jun-21 06:33N 37°47' E 023°26'14 1.3
2016-Jun-20 20:04N 37°57' E 023°39'2 4.6
2016-Jun-20 19:34N 37°55' E 023°36'1212.2
2016-Jun-20 18:33N 37°46' E 023°25'0 0.1
2016-Jun-20 17:34N 37°46' E 023°25'1212.2
2016-Jun-20 16:33N 37°55' E 023°36'2 2.3
2016-Jun-20 15:34N 37°53' E 023°34'1111.1
2016-Jun-20 14:33N 37°45' E 023°25'3 3.5
2016-Jun-20 13:34N 37°48' E 023°28'1212.2
2016-Jun-20 12:33N 37°57' E 023°38'5 5.1
2016-Jun-20 11:33N 37°53' E 023°34'1110.6
2016-Jun-20 10:33N 37°45' E 023°26'3 3.0
2016-Jun-20 09:33N 37°47' E 023°27'1212.5
2016-Jun-20 08:34N 37°56' E 023°38'2 2.4
2016-Jun-20 07:34N 37°55' E 023°36'1212.3
2016-Jun-20 06:33N 37°46' E 023°25'5 5.2
2016-Jun-20 05:34N 37°49' E 023°30'1010.1
2016-Jun-20 04:33N 37°57' E 023°39'0 0.0
2016-Jun-19 19:33N 37°57' E 023°38'1110.8
2016-Jun-19 18:33N 37°49' E 023°29'5 5.3
2016-Jun-19 17:33N 37°45' E 023°25'1211.6
2016-Jun-19 16:33N 37°53' E 023°35'1 0.6
2016-Jun-19 15:33N 37°54' E 023°35'1211.6
2016-Jun-19 14:33N 37°45' E 023°25'4 3.9
2016-Jun-19 13:33N 37°48' E 023°28'1212.0
2016-Jun-19 12:33N 37°57' E 023°38'5 5.2
2016-Jun-19 11:33N 37°52' E 023°35'1110.5
2016-Jun-19 10:33N 37°45' E 023°25'4 4.1
2016-Jun-19 09:33N 37°48' E 023°29'1211.7
2016-Jun-19 08:33N 37°57' E 023°39'4 4.1
2016-Jun-19 07:33N 37°54' E 023°35'1211.7
2016-Jun-19 06:33N 37°45' E 023°25'6 5.6
2016-Jun-19 05:33N 37°49' E 023°30'  

Dump ship's entire track history